createdAt,value
2023-03-04T09:50:22.295Z,9.00
2023-03-04T09:55:21.286Z,9.30
2023-03-04T10:00:20.353Z,9.60
2023-03-04T10:05:21.005Z,9.80
2023-03-04T10:10:20.704Z,10.10
2023-03-04T10:15:26.328Z,10.60
2023-03-04T10:20:23.924Z,10.90
2023-03-04T10:25:22.200Z,11.30
2023-03-04T10:30:24.954Z,11.50
2023-03-04T10:35:27.870Z,11.70
2023-03-04T10:40:26.773Z,12.10
2023-03-04T10:45:26.515Z,12.60
2023-03-04T10:50:24.604Z,12.90
2023-03-04T10:55:21.889Z,13.30
2023-03-04T11:00:32.092Z,13.70
2023-03-04T11:05:27.210Z,14.00
2023-03-04T11:10:23.058Z,14.50
2023-03-04T11:15:27.691Z,14.90
2023-03-04T11:20:30.261Z,15.20
2023-03-04T11:25:28.662Z,15.40
2023-03-04T11:30:30.526Z,15.70
2023-03-04T11:35:28.753Z,15.90
2023-03-04T11:40:32.330Z,16.10
2023-03-04T11:45:34.077Z,16.40
2023-03-04T11:50:34.529Z,17.00
2023-03-04T11:55:35.768Z,17.50
2023-03-04T12:00:50.584Z,17.70
2023-03-04T12:05:57.021Z,17.80
2023-03-04T12:10:57.606Z,17.80
2023-03-04T12:16:01.366Z,18.10
2023-03-04T12:21:23.114Z,18.40
2023-03-04T12:26:31.359Z,18.40
2023-03-04T12:31:37.275Z,18.80
2023-03-04T12:36:40.032Z,19.10
2023-03-04T12:41:45.331Z,19.30
2023-03-04T12:46:47.739Z,19.50
2023-03-04T12:51:48.499Z,19.40
2023-03-04T12:56:49.278Z,19.80
2023-03-04T13:01:51.377Z,20.00
2023-03-04T13:06:50.338Z,20.20
2023-03-04T13:11:53.832Z,20.10
2023-03-04T13:16:50.372Z,20.60
2023-03-04T13:21:50.673Z,21.00
2023-03-04T13:26:44.239Z,22.00
2023-03-04T13:37:00.569Z,22.80
2023-03-04T13:41:56.757Z,23.10
2023-03-04T13:46:50.234Z,23.70
2023-03-04T13:51:46.547Z,24.80
2023-03-04T13:56:42.475Z,25.30
2023-03-04T14:01:37.766Z,25.90
2023-03-04T14:06:32.765Z,26.00
2023-03-04T14:11:31.704Z,26.80
2023-03-04T14:16:30.166Z,27.20
2023-03-04T14:21:23.726Z,27.70
2023-03-04T14:26:20.112Z,27.80
2023-03-04T14:31:19.492Z,27.70
2023-03-04T14:36:19.648Z,27.80
2023-03-04T14:41:19.312Z,28.30
2023-03-04T14:46:16.992Z,28.70
2023-03-04T14:51:38.058Z,27.90
2023-03-04T14:56:34.723Z,28.40
2023-03-04T15:01:34.869Z,29.00
2023-03-04T15:06:30.842Z,29.90
2023-03-04T15:11:28.755Z,28.80
2023-03-04T15:16:25.452Z,28.80
2023-03-04T15:21:36.896Z,29.10
2023-03-04T15:26:33.445Z,28.90
2023-03-04T15:31:27.467Z,27.90
2023-03-04T15:36:23.462Z,27.50
2023-03-04T15:41:20.280Z,26.40
2023-03-04T15:46:18.148Z,21.80
2023-03-04T15:51:16.003Z,19.00
2023-03-04T15:56:13.627Z,17.50
2023-03-04T16:01:07.570Z,16.80
2023-03-04T16:06:02.606Z,16.40
2023-03-04T16:10:56.241Z,16.00
2023-03-04T16:15:50.098Z,15.60
2023-03-04T16:20:47.311Z,15.30
2023-03-04T16:25:45.214Z,15.10
2023-03-04T16:30:39.359Z,14.70
2023-03-04T16:35:35.879Z,14.30
2023-03-04T16:40:31.592Z,13.90
2023-03-04T16:45:30.352Z,13.10
2023-03-04T16:50:28.556Z,12.80
2023-03-04T16:55:24.476Z,12.40
2023-03-04T17:00:20.023Z,12.00
2023-03-04T17:05:19.779Z,11.70
2023-03-04T17:10:14.319Z,11.40
2023-03-04T17:15:09.144Z,11.00
2023-03-04T17:20:06.322Z,10.60
2023-03-04T17:25:02.847Z,10.40
2023-03-04T17:29:56.330Z,10.30
2023-03-04T17:34:49.834Z,10.20
2023-03-04T17:39:43.653Z,10.00
2023-03-04T17:44:38.592Z,9.80
2023-03-04T17:49:34.234Z,9.60
2023-03-04T17:54:28.396Z,9.30
2023-03-04T17:59:22.140Z,9.10
2023-03-04T18:04:17.809Z,9.00
2023-03-04T18:09:11.350Z,8.90
2023-03-04T18:14:05.409Z,8.70
2023-03-04T18:19:01.333Z,8.40
2023-03-04T18:23:56.606Z,8.20
2023-03-04T18:28:50.192Z,8.00
2023-03-04T18:33:44.329Z,7.80
2023-03-04T18:38:37.893Z,7.60
2023-03-04T18:43:33.881Z,7.50
2023-03-04T18:48:27.583Z,7.30
2023-03-04T18:53:21.551Z,7.00
2023-03-04T18:58:14.985Z,6.80
2023-03-04T19:08:02.805Z,6.30
